sensor_id;sensor_type;location;lat;lon;timestamp;P1;durP1;ratioP1;P2;durP2;ratioP2
19848;SDS011;10085;51.120;6.956;2022-10-15T00:03:30;42.88;;;19.95;;
19848;SDS011;10085;51.120;6.956;2022-10-15T00:08:34;42.45;;;20.63;;
19848;SDS011;10085;51.120;6.956;2022-10-15T00:13:37;40.78;;;18.08;;
19848;SDS011;10085;51.120;6.956;2022-10-15T00:18:41;42.53;;;17.85;;
19848;SDS011;10085;51.120;6.956;2022-10-15T00:23:45;40.60;;;17.48;;
19848;SDS011;10085;51.120;6.956;2022-10-15T00:28:49;39.05;;;17.45;;
19848;SDS011;10085;51.120;6.956;2022-10-15T00:33:57;34.15;;;16.30;;
19848;SDS011;10085;51.120;6.956;2022-10-15T00:39:02;31.45;;;16.42;;
19848;SDS011;10085;51.120;6.956;2022-10-15T00:49:47;33.17;;;14.77;;
19848;SDS011;10085;51.120;6.956;2022-10-15T00:54:58;29.25;;;14.15;;
19848;SDS011;10085;51.120;6.956;2022-10-15T01:00:04;29.75;;;14.40;;
19848;SDS011;10085;51.120;6.956;2022-10-15T01:05:09;28.63;;;14.15;;
19848;SDS011;10085;51.120;6.956;2022-10-15T01:10:15;28.92;;;14.07;;
19848;SDS011;10085;51.120;6.956;2022-10-15T01:15:22;26.02;;;13.15;;
19848;SDS011;10085;51.120;6.956;2022-10-15T01:20:35;28.60;;;13.15;;
19848;SDS011;10085;51.120;6.956;2022-10-15T01:25:52;24.25;;;12.25;;
19848;SDS011;10085;51.120;6.956;2022-10-15T01:31:01;26.40;;;12.63;;
19848;SDS011;10085;51.120;6.956;2022-10-15T01:36:11;24.27;;;11.32;;
19848;SDS011;10085;51.120;6.956;2022-10-15T01:41:21;23.20;;;11.50;;
19848;SDS011;10085;51.120;6.956;2022-10-15T01:46:31;20.42;;;10.82;;
19848;SDS011;10085;51.120;6.956;2022-10-15T01:51:39;19.10;;;10.30;;
19848;SDS011;10085;51.120;6.956;2022-10-15T01:56:46;20.52;;;10.65;;
19848;SDS011;10085;51.120;6.956;2022-10-15T02:01:54;20.08;;;10.38;;
19848;SDS011;10085;51.120;6.956;2022-10-15T02:07:01;19.13;;;10.02;;
19848;SDS011;10085;51.120;6.956;2022-10-15T02:17:56;18.38;;;8.90;;
19848;SDS011;10085;51.120;6.956;2022-10-15T02:23:03;15.80;;;8.40;;
19848;SDS011;10085;51.120;6.956;2022-10-15T02:28:12;15.82;;;8.60;;
19848;SDS011;10085;51.120;6.956;2022-10-15T02:33:18;14.48;;;8.40;;
19848;SDS011;10085;51.120;6.956;2022-10-15T02:38:21;13.10;;;7.40;;
19848;SDS011;10085;51.120;6.956;2022-10-15T02:43:26;12.10;;;7.32;;
19848;SDS011;10085;51.120;6.956;2022-10-15T02:48:30;13.38;;;7.32;;
19848;SDS011;10085;51.120;6.956;2022-10-15T02:53:33;14.32;;;7.20;;
19848;SDS011;10085;51.120;6.956;2022-10-15T02:58:37;12.25;;;7.40;;
19848;SDS011;10085;51.120;6.956;2022-10-15T03:03:42;11.93;;;7.22;;
19848;SDS011;10085;51.120;6.956;2022-10-15T03:08:45;12.55;;;7.07;;
19848;SDS011;10085;51.120;6.956;2022-10-15T03:13:48;13.45;;;7.10;;
19848;SDS011;10085;51.120;6.956;2022-10-15T03:18:53;11.60;;;6.63;;
19848;SDS011;10085;51.120;6.956;2022-10-15T03:23:56;11.00;;;6.63;;
19848;SDS011;10085;51.120;6.956;2022-10-15T03:29:00;11.18;;;5.97;;
19848;SDS011;10085;51.120;6.956;2022-10-15T03:34:17;11.48;;;6.38;;
19848;SDS011;10085;51.120;6.956;2022-10-15T03:39:20;9.25;;;5.85;;
19848;SDS011;10085;51.120;6.956;2022-10-15T03:44:28;12.00;;;6.60;;
19848;SDS011;10085;51.120;6.956;2022-10-15T03:49:43;8.35;;;5.60;;
19848;SDS011;10085;51.120;6.956;2022-10-15T03:54:46;8.60;;;5.32;;
19848;SDS011;10085;51.120;6.956;2022-10-15T03:59:52;9.75;;;5.88;;
19848;SDS011;10085;51.120;6.956;2022-10-15T04:04:59;9.57;;;5.70;;
19848;SDS011;10085;51.120;6.956;2022-10-15T04:10:02;8.60;;;5.53;;
19848;SDS011;10085;51.120;6.956;2022-10-15T04:15:11;8.63;;;5.65;;
19848;SDS011;10085;51.120;6.956;2022-10-15T04:20:23;9.35;;;5.60;;
19848;SDS011;10085;51.120;6.956;2022-10-15T04:25:25;8.52;;;4.95;;
19848;SDS011;10085;51.120;6.956;2022-10-15T04:30:28;8.43;;;4.95;;
19848;SDS011;10085;51.120;6.956;2022-10-15T04:35:35;9.23;;;5.07;;
19848;SDS011;10085;51.120;6.956;2022-10-15T04:40:42;8.52;;;5.13;;
19848;SDS011;10085;51.120;6.956;2022-10-15T04:45:45;9.93;;;5.22;;
19848;SDS011;10085;51.120;6.956;2022-10-15T04:50:53;11.05;;;4.70;;
19848;SDS011;10085;51.120;6.956;2022-10-15T04:55:58;7.55;;;4.63;;
19848;SDS011;10085;51.120;6.956;2022-10-15T05:01:03;6.68;;;4.55;;
19848;SDS011;10085;51.120;6.956;2022-10-15T05:06:21;6.88;;;4.05;;
19848;SDS011;10085;51.120;6.956;2022-10-15T05:11:29;6.30;;;4.32;;
19848;SDS011;10085;51.120;6.956;2022-10-15T05:16:32;6.20;;;4.20;;
19848;SDS011;10085;51.120;6.956;2022-10-15T05:21:36;6.18;;;4.22;;
19848;SDS011;10085;51.120;6.956;2022-10-15T05:26:47;7.20;;;4.80;;
19848;SDS011;10085;51.120;6.956;2022-10-15T05:31:50;9.60;;;4.22;;
19848;SDS011;10085;51.120;6.956;2022-10-15T05:36:58;6.45;;;4.00;;
19848;SDS011;10085;51.120;6.956;2022-10-15T05:42:01;6.32;;;4.05;;
19848;SDS011;10085;51.120;6.956;2022-10-15T05:47:14;5.53;;;3.90;;
19848;SDS011;10085;51.120;6.956;2022-10-15T05:52:18;6.72;;;4.35;;
19848;SDS011;10085;51.120;6.956;2022-10-15T05:57:40;6.13;;;4.20;;
19848;SDS011;10085;51.120;6.956;2022-10-15T06:02:43;6.88;;;3.72;;
19848;SDS011;10085;51.120;6.956;2022-10-15T06:07:47;5.50;;;3.60;;
19848;SDS011;10085;51.120;6.956;2022-10-15T06:12:50;5.75;;;3.80;;
19848;SDS011;10085;51.120;6.956;2022-10-15T06:17:52;6.22;;;3.63;;
19848;SDS011;10085;51.120;6.956;2022-10-15T06:22:57;5.68;;;3.58;;
19848;SDS011;10085;51.120;6.956;2022-10-15T06:28:00;8.40;;;4.05;;
19848;SDS011;10085;51.120;6.956;2022-10-15T06:33:12;6.93;;;3.47;;
19848;SDS011;10085;51.120;6.956;2022-10-15T06:38:17;10.65;;;3.97;;
19848;SDS011;10085;51.120;6.956;2022-10-15T06:43:20;6.78;;;3.80;;
19848;SDS011;10085;51.120;6.956;2022-10-15T06:48:23;7.97;;;3.60;;
19848;SDS011;10085;51.120;6.956;2022-10-15T06:53:27;7.15;;;3.30;;
19848;SDS011;10085;51.120;6.956;2022-10-15T06:58:31;5.18;;;3.40;;
19848;SDS011;10085;51.120;6.956;2022-10-15T07:03:33;8.90;;;4.30;;
19848;SDS011;10085;51.120;6.956;2022-10-15T07:08:41;7.90;;;4.60;;
19848;SDS011;10085;51.120;6.956;2022-10-15T07:13:45;8.32;;;5.13;;
19848;SDS011;10085;51.120;6.956;2022-10-15T07:18:47;7.65;;;5.32;;
19848;SDS011;10085;51.120;6.956;2022-10-15T07:23:51;6.07;;;5.03;;
19848;SDS011;10085;51.120;6.956;2022-10-15T07:28:54;8.82;;;5.55;;
19848;SDS011;10085;51.120;6.956;2022-10-15T07:33:57;9.23;;;6.00;;
19848;SDS011;10085;51.120;6.956;2022-10-15T07:39:01;11.05;;;8.13;;
19848;SDS011;10085;51.120;6.956;2022-10-15T07:44:04;10.68;;;8.25;;
19848;SDS011;10085;51.120;6.956;2022-10-15T07:49:07;11.95;;;9.10;;
19848;SDS011;10085;51.120;6.956;2022-10-15T07:54:13;11.00;;;8.85;;
19848;SDS011;10085;51.120;6.956;2022-10-15T07:59:15;10.50;;;8.52;;
19848;SDS011;10085;51.120;6.956;2022-10-15T08:04:18;12.80;;;9.20;;
19848;SDS011;10085;51.120;6.956;2022-10-15T08:09:24;10.15;;;8.10;;
19848;SDS011;10085;51.120;6.956;2022-10-15T08:14:26;11.23;;;8.15;;
19848;SDS011;10085;51.120;6.956;2022-10-15T08:19:29;11.95;;;8.18;;
19848;SDS011;10085;51.120;6.956;2022-10-15T08:24:33;10.02;;;7.93;;
19848;SDS011;10085;51.120;6.956;2022-10-15T08:29:36;10.40;;;7.93;;
19848;SDS011;10085;51.120;6.956;2022-10-15T08:34:39;8.27;;;7.22;;
19848;SDS011;10085;51.120;6.956;2022-10-15T08:39:43;10.02;;;6.95;;
19848;SDS011;10085;51.120;6.956;2022-10-15T08:44:49;8.10;;;7.00;;
19848;SDS011;10085;51.120;6.956;2022-10-15T08:49:53;8.70;;;6.55;;
19848;SDS011;10085;51.120;6.956;2022-10-15T08:54:59;7.88;;;6.35;;
19848;SDS011;10085;51.120;6.956;2022-10-15T09:00:03;8.07;;;6.00;;
19848;SDS011;10085;51.120;6.956;2022-10-15T09:05:15;6.93;;;5.40;;
19848;SDS011;10085;51.120;6.956;2022-10-15T09:10:29;6.82;;;5.20;;
19848;SDS011;10085;51.120;6.956;2022-10-15T09:15:38;6.00;;;5.10;;
19848;SDS011;10085;51.120;6.956;2022-10-15T09:20:44;6.35;;;5.22;;
19848;SDS011;10085;51.120;6.956;2022-10-15T09:25:50;11.05;;;5.20;;
19848;SDS011;10085;51.120;6.956;2022-10-15T09:30:56;5.30;;;4.70;;
19848;SDS011;10085;51.120;6.956;2022-10-15T09:36:02;6.18;;;4.80;;
19848;SDS011;10085;51.120;6.956;2022-10-15T09:41:15;5.50;;;4.57;;
19848;SDS011;10085;51.120;6.956;2022-10-15T09:46:23;6.10;;;4.72;;
19848;SDS011;10085;51.120;6.956;2022-10-15T09:51:26;7.05;;;4.35;;
19848;SDS011;10085;51.120;6.956;2022-10-15T09:56:33;6.95;;;4.53;;
19848;SDS011;10085;51.120;6.956;2022-10-15T10:01:37;5.80;;;4.32;;
19848;SDS011;10085;51.120;6.956;2022-10-15T10:06:44;5.90;;;4.30;;
19848;SDS011;10085;51.120;6.956;2022-10-15T10:11:49;4.75;;;3.90;;
19848;SDS011;10085;51.120;6.956;2022-10-15T10:17:03;4.88;;;4.03;;
19848;SDS011;10085;51.120;6.956;2022-10-15T10:22:12;4.05;;;3.20;;
19848;SDS011;10085;51.120;6.956;2022-10-15T10:27:19;4.90;;;3.78;;
19848;SDS011;10085;51.120;6.956;2022-10-15T10:32:25;5.82;;;3.85;;
19848;SDS011;10085;51.120;6.956;2022-10-15T10:37:39;3.60;;;3.25;;
19848;SDS011;10085;51.120;6.956;2022-10-15T10:42:45;6.07;;;3.53;;
19848;SDS011;10085;51.120;6.956;2022-10-15T10:47:51;4.28;;;3.35;;
19848;SDS011;10085;51.120;6.956;2022-10-15T10:52:54;5.60;;;3.35;;
19848;SDS011;10085;51.120;6.956;2022-10-15T10:58:02;4.03;;;3.22;;
19848;SDS011;10085;51.120;6.956;2022-10-15T11:03:05;4.22;;;3.10;;
19848;SDS011;10085;51.120;6.956;2022-10-15T11:08:19;3.78;;;3.10;;
19848;SDS011;10085;51.120;6.956;2022-10-15T11:13:42;4.20;;;2.97;;
19848;SDS011;10085;51.120;6.956;2022-10-15T11:18:52;3.63;;;2.80;;
19848;SDS011;10085;51.120;6.956;2022-10-15T11:24:02;3.85;;;3.17;;
19848;SDS011;10085;51.120;6.956;2022-10-15T11:29:14;3.80;;;3.20;;
19848;SDS011;10085;51.120;6.956;2022-10-15T11:34:24;3.78;;;2.90;;
19848;SDS011;10085;51.120;6.956;2022-10-15T11:39:36;6.32;;;3.20;;
19848;SDS011;10085;51.120;6.956;2022-10-15T11:44:58;4.10;;;3.13;;
19848;SDS011;10085;51.120;6.956;2022-10-15T11:50:12;4.03;;;3.10;;
19848;SDS011;10085;51.120;6.956;2022-10-15T11:55:19;4.28;;;3.17;;
19848;SDS011;10085;51.120;6.956;2022-10-15T12:00:29;3.90;;;3.03;;
19848;SDS011;10085;51.120;6.956;2022-10-15T12:05:34;2.97;;;2.67;;
19848;SDS011;10085;51.120;6.956;2022-10-15T12:10:50;4.53;;;3.05;;
19848;SDS011;10085;51.120;6.956;2022-10-15T12:16:03;4.00;;;2.90;;
19848;SDS011;10085;51.120;6.956;2022-10-15T12:21:32;3.55;;;2.75;;
19848;SDS011;10085;51.120;6.956;2022-10-15T12:26:37;3.55;;;2.90;;
19848;SDS011;10085;51.120;6.956;2022-10-15T12:31:46;5.75;;;2.88;;
19848;SDS011;10085;51.120;6.956;2022-10-15T12:36:57;5.90;;;2.97;;
19848;SDS011;10085;51.120;6.956;2022-10-15T12:42:01;6.15;;;3.20;;
19848;SDS011;10085;51.120;6.956;2022-10-15T12:47:05;4.43;;;2.92;;
19848;SDS011;10085;51.120;6.956;2022-10-15T12:57:56;3.78;;;2.90;;
19848;SDS011;10085;51.120;6.956;2022-10-15T13:03:08;3.33;;;2.92;;
19848;SDS011;10085;51.120;6.956;2022-10-15T13:08:18;4.35;;;2.80;;
19848;SDS011;10085;51.120;6.956;2022-10-15T13:13:25;5.40;;;2.95;;
19848;SDS011;10085;51.120;6.956;2022-10-15T13:18:31;4.10;;;2.72;;
19848;SDS011;10085;51.120;6.956;2022-10-15T13:23:34;4.18;;;2.90;;
19848;SDS011;10085;51.120;6.956;2022-10-15T13:28:38;5.00;;;2.70;;
19848;SDS011;10085;51.120;6.956;2022-10-15T13:33:44;3.20;;;2.60;;
19848;SDS011;10085;51.120;6.956;2022-10-15T13:38:54;3.67;;;2.80;;
19848;SDS011;10085;51.120;6.956;2022-10-15T13:43:59;5.10;;;2.72;;
19848;SDS011;10085;51.120;6.956;2022-10-15T13:49:08;4.55;;;2.50;;
19848;SDS011;10085;51.120;6.956;2022-10-15T13:54:14;3.17;;;2.50;;
19848;SDS011;10085;51.120;6.956;2022-10-15T13:59:18;3.85;;;2.50;;
19848;SDS011;10085;51.120;6.956;2022-10-15T14:04:23;4.18;;;2.70;;
19848;SDS011;10085;51.120;6.956;2022-10-15T14:09:26;6.13;;;2.55;;
19848;SDS011;10085;51.120;6.956;2022-10-15T14:14:32;3.53;;;2.38;;
19848;SDS011;10085;51.120;6.956;2022-10-15T14:19:37;2.88;;;2.35;;
19848;SDS011;10085;51.120;6.956;2022-10-15T14:24:40;3.53;;;2.40;;
19848;SDS011;10085;51.120;6.956;2022-10-15T14:29:43;3.30;;;2.40;;
19848;SDS011;10085;51.120;6.956;2022-10-15T14:34:48;2.92;;;2.28;;
19848;SDS011;10085;51.120;6.956;2022-10-15T14:40:00;3.03;;;2.30;;
19848;SDS011;10085;51.120;6.956;2022-10-15T14:45:12;3.72;;;2.28;;
19848;SDS011;10085;51.120;6.956;2022-10-15T14:50:22;4.05;;;2.35;;
19848;SDS011;10085;51.120;6.956;2022-10-15T14:55:27;3.50;;;2.20;;
19848;SDS011;10085;51.120;6.956;2022-10-15T15:00:34;3.45;;;2.10;;
19848;SDS011;10085;51.120;6.956;2022-10-15T15:05:46;2.95;;;2.38;;
19848;SDS011;10085;51.120;6.956;2022-10-15T15:10:49;3.80;;;2.10;;
19848;SDS011;10085;51.120;6.956;2022-10-15T15:15:53;2.25;;;1.98;;
19848;SDS011;10085;51.120;6.956;2022-10-15T15:20:58;2.88;;;1.90;;
19848;SDS011;10085;51.120;6.956;2022-10-15T15:26:03;4.18;;;2.13;;
19848;SDS011;10085;51.120;6.956;2022-10-15T15:31:06;3.10;;;2.05;;
19848;SDS011;10085;51.120;6.956;2022-10-15T15:36:15;2.92;;;2.10;;
19848;SDS011;10085;51.120;6.956;2022-10-15T15:41:23;2.90;;;2.30;;
19848;SDS011;10085;51.120;6.956;2022-10-15T15:46:26;3.70;;;2.05;;
19848;SDS011;10085;51.120;6.956;2022-10-15T15:51:30;4.43;;;1.92;;
19848;SDS011;10085;51.120;6.956;2022-10-15T15:56:34;4.20;;;1.90;;
19848;SDS011;10085;51.120;6.956;2022-10-15T16:01:37;3.33;;;1.70;;
19848;SDS011;10085;51.120;6.956;2022-10-15T16:06:42;2.47;;;1.60;;
19848;SDS011;10085;51.120;6.956;2022-10-15T16:11:44;2.78;;;2.20;;
19848;SDS011;10085;51.120;6.956;2022-10-15T16:16:47;3.13;;;2.08;;
19848;SDS011;10085;51.120;6.956;2022-10-15T16:21:51;3.20;;;2.20;;
19848;SDS011;10085;51.120;6.956;2022-10-15T16:26:54;2.47;;;1.80;;
19848;SDS011;10085;51.120;6.956;2022-10-15T16:31:57;2.10;;;1.80;;
19848;SDS011;10085;51.120;6.956;2022-10-15T16:37:01;3.15;;;2.05;;
19848;SDS011;10085;51.120;6.956;2022-10-15T16:42:03;3.42;;;1.90;;
19848;SDS011;10085;51.120;6.956;2022-10-15T16:47:06;3.22;;;1.75;;
19848;SDS011;10085;51.120;6.956;2022-10-15T16:52:10;3.50;;;2.00;;
19848;SDS011;10085;51.120;6.956;2022-10-15T16:57:13;7.05;;;2.33;;
19848;SDS011;10085;51.120;6.956;2022-10-15T17:02:16;7.90;;;2.40;;
19848;SDS011;10085;51.120;6.956;2022-10-15T17:07:20;15.00;;;2.92;;
19848;SDS011;10085;51.120;6.956;2022-10-15T17:12:23;10.82;;;2.55;;
19848;SDS011;10085;51.120;6.956;2022-10-15T17:17:27;11.23;;;2.85;;
19848;SDS011;10085;51.120;6.956;2022-10-15T17:22:31;11.88;;;2.47;;
19848;SDS011;10085;51.120;6.956;2022-10-15T17:27:35;6.30;;;2.30;;
19848;SDS011;10085;51.120;6.956;2022-10-15T17:32:37;6.80;;;2.50;;
19848;SDS011;10085;51.120;6.956;2022-10-15T17:37:41;12.63;;;2.85;;
19848;SDS011;10085;51.120;6.956;2022-10-15T17:42:45;9.60;;;2.75;;
19848;SDS011;10085;51.120;6.956;2022-10-15T17:47:47;8.00;;;2.17;;
19848;SDS011;10085;51.120;6.956;2022-10-15T17:52:51;9.02;;;2.45;;
19848;SDS011;10085;51.120;6.956;2022-10-15T17:57:55;7.70;;;2.35;;
19848;SDS011;10085;51.120;6.956;2022-10-15T18:02:58;10.85;;;2.53;;
19848;SDS011;10085;51.120;6.956;2022-10-15T18:08:02;9.15;;;2.15;;
19848;SDS011;10085;51.120;6.956;2022-10-15T18:13:05;6.90;;;2.17;;
19848;SDS011;10085;51.120;6.956;2022-10-15T18:18:08;6.25;;;2.08;;
19848;SDS011;10085;51.120;6.956;2022-10-15T18:23:12;4.35;;;2.20;;
19848;SDS011;10085;51.120;6.956;2022-10-15T18:28:15;5.53;;;2.00;;
19848;SDS011;10085;51.120;6.956;2022-10-15T18:33:19;5.32;;;1.80;;
19848;SDS011;10085;51.120;6.956;2022-10-15T18:38:23;5.65;;;1.90;;
19848;SDS011;10085;51.120;6.956;2022-10-15T18:43:26;4.15;;;2.03;;
19848;SDS011;10085;51.120;6.956;2022-10-15T18:48:29;5.57;;;1.80;;
19848;SDS011;10085;51.120;6.956;2022-10-15T18:53:35;9.77;;;3.63;;
19848;SDS011;10085;51.120;6.956;2022-10-15T18:58:38;23.80;;;7.10;;
19848;SDS011;10085;51.120;6.956;2022-10-15T19:03:43;34.33;;;12.20;;
19848;SDS011;10085;51.120;6.956;2022-10-15T19:08:47;64.82;;;22.80;;
19848;SDS011;10085;51.120;6.956;2022-10-15T19:13:50;113.80;;;35.42;;
19848;SDS011;10085;51.120;6.956;2022-10-15T19:18:53;131.48;;;42.53;;
19848;SDS011;10085;51.120;6.956;2022-10-15T19:23:57;135.27;;;45.53;;
19848;SDS011;10085;51.120;6.956;2022-10-15T19:29:00;153.73;;;48.33;;
19848;SDS011;10085;51.120;6.956;2022-10-15T19:34:03;150.40;;;50.13;;
19848;SDS011;10085;51.120;6.956;2022-10-15T19:39:09;137.18;;;50.08;;
19848;SDS011;10085;51.120;6.956;2022-10-15T19:44:14;148.20;;;52.00;;
19848;SDS011;10085;51.120;6.956;2022-10-15T19:49:18;148.50;;;51.83;;
19848;SDS011;10085;51.120;6.956;2022-10-15T19:54:22;140.88;;;51.08;;
19848;SDS011;10085;51.120;6.956;2022-10-15T19:59:25;141.13;;;52.13;;
19848;SDS011;10085;51.120;6.956;2022-10-15T20:04:28;147.70;;;51.40;;
19848;SDS011;10085;51.120;6.956;2022-10-15T20:09:32;135.00;;;49.67;;
19848;SDS011;10085;51.120;6.956;2022-10-15T20:14:35;134.00;;;48.80;;
19848;SDS011;10085;51.120;6.956;2022-10-15T20:19:38;130.95;;;48.25;;
19848;SDS011;10085;51.120;6.956;2022-10-15T20:24:42;147.15;;;44.88;;
19848;SDS011;10085;51.120;6.956;2022-10-15T20:29:45;116.35;;;44.50;;
19848;SDS011;10085;51.120;6.956;2022-10-15T20:34:47;116.38;;;44.83;;
19848;SDS011;10085;51.120;6.956;2022-10-15T20:39:51;114.57;;;42.90;;
19848;SDS011;10085;51.120;6.956;2022-10-15T20:44:54;111.82;;;41.28;;
19848;SDS011;10085;51.120;6.956;2022-10-15T20:49:57;101.00;;;39.75;;
19848;SDS011;10085;51.120;6.956;2022-10-15T20:55:01;98.55;;;38.95;;
19848;SDS011;10085;51.120;6.956;2022-10-15T21:00:05;91.85;;;37.50;;
19848;SDS011;10085;51.120;6.956;2022-10-15T21:05:09;101.90;;;39.20;;
19848;SDS011;10085;51.120;6.956;2022-10-15T21:10:13;94.00;;;37.60;;
19848;SDS011;10085;51.120;6.956;2022-10-15T21:15:16;88.70;;;35.20;;
19848;SDS011;10085;51.120;6.956;2022-10-15T21:20:19;80.63;;;34.28;;
19848;SDS011;10085;51.120;6.956;2022-10-15T21:25:23;93.20;;;35.53;;
19848;SDS011;10085;51.120;6.956;2022-10-15T21:30:25;79.20;;;32.45;;
19848;SDS011;10085;51.120;6.956;2022-10-15T21:35:28;84.75;;;31.77;;
19848;SDS011;10085;51.120;6.956;2022-10-15T21:40:32;75.28;;;30.80;;
19848;SDS011;10085;51.120;6.956;2022-10-15T21:45:35;75.90;;;30.60;;
19848;SDS011;10085;51.120;6.956;2022-10-15T21:50:38;71.95;;;29.90;;
19848;SDS011;10085;51.120;6.956;2022-10-15T21:55:42;66.68;;;29.10;;
19848;SDS011;10085;51.120;6.956;2022-10-15T22:00:53;67.10;;;28.45;;
19848;SDS011;10085;51.120;6.956;2022-10-15T22:05:57;64.47;;;26.90;;
19848;SDS011;10085;51.120;6.956;2022-10-15T22:11:08;60.42;;;25.65;;
19848;SDS011;10085;51.120;6.956;2022-10-15T22:16:12;56.72;;;24.63;;
19848;SDS011;10085;51.120;6.956;2022-10-15T22:21:16;55.30;;;23.73;;
19848;SDS011;10085;51.120;6.956;2022-10-15T22:26:21;58.28;;;23.30;;
19848;SDS011;10085;51.120;6.956;2022-10-15T22:31:25;54.53;;;22.67;;
19848;SDS011;10085;51.120;6.956;2022-10-15T22:36:28;53.00;;;22.08;;
19848;SDS011;10085;51.120;6.956;2022-10-15T22:41:34;49.58;;;20.60;;
19848;SDS011;10085;51.120;6.956;2022-10-15T22:46:39;45.67;;;19.20;;
19848;SDS011;10085;51.120;6.956;2022-10-15T22:51:42;41.40;;;18.73;;
19848;SDS011;10085;51.120;6.956;2022-10-15T22:56:46;45.25;;;18.40;;
19848;SDS011;10085;51.120;6.956;2022-10-15T23:01:49;40.83;;;16.95;;
19848;SDS011;10085;51.120;6.956;2022-10-15T23:06:52;40.33;;;16.52;;
19848;SDS011;10085;51.120;6.956;2022-10-15T23:11:56;38.92;;;15.98;;
19848;SDS011;10085;51.120;6.956;2022-10-15T23:16:58;39.85;;;16.38;;
19848;SDS011;10085;51.120;6.956;2022-10-15T23:22:01;35.08;;;15.75;;
19848;SDS011;10085;51.120;6.956;2022-10-15T23:27:05;36.53;;;15.57;;
19848;SDS011;10085;51.120;6.956;2022-10-15T23:32:08;36.63;;;15.07;;
19848;SDS011;10085;51.120;6.956;2022-10-15T23:37:11;31.42;;;13.82;;
19848;SDS011;10085;51.120;6.956;2022-10-15T23:42:15;30.38;;;13.30;;
19848;SDS011;10085;51.120;6.956;2022-10-15T23:47:18;29.33;;;13.85;;
19848;SDS011;10085;51.120;6.956;2022-10-15T23:52:20;28.33;;;12.38;;
19848;SDS011;10085;51.120;6.956;2022-10-15T23:57:24;25.40;;;12.52;;
